sensor_id;sensor_type;location;lat;lon;timestamp;P1;durP1;ratioP1;P2;durP2;ratioP2
60314;SDS011;46159;42.550;21.904;2023-07-20T00:01:45;12.95;;;2.88;;
60314;SDS011;46159;42.550;21.904;2023-07-20T00:04:13;15.45;;;3.58;;
60314;SDS011;46159;42.550;21.904;2023-07-20T00:06:39;14.63;;;3.42;;
60314;SDS011;46159;42.550;21.904;2023-07-20T00:09:08;11.45;;;3.15;;
60314;SDS011;46159;42.550;21.904;2023-07-20T00:11:38;12.23;;;3.50;;
60314;SDS011;46159;42.550;21.904;2023-07-20T00:14:04;13.98;;;4.13;;
60314;SDS011;46159;42.550;21.904;2023-07-20T00:16:30;10.93;;;3.30;;
60314;SDS011;46159;42.550;21.904;2023-07-20T00:18:56;13.10;;;3.50;;
60314;SDS011;46159;42.550;21.904;2023-07-20T00:21:22;10.63;;;3.30;;
60314;SDS011;46159;42.550;21.904;2023-07-20T00:23:49;12.70;;;3.17;;
60314;SDS011;46159;42.550;21.904;2023-07-20T00:26:15;11.45;;;3.00;;
60314;SDS011;46159;42.550;21.904;2023-07-20T00:28:41;13.52;;;2.95;;
60314;SDS011;46159;42.550;21.904;2023-07-20T00:31:07;11.35;;;3.50;;
60314;SDS011;46159;42.550;21.904;2023-07-20T00:33:33;12.13;;;2.88;;
60314;SDS011;46159;42.550;21.904;2023-07-20T00:35:59;13.02;;;3.83;;
60314;SDS011;46159;42.550;21.904;2023-07-20T00:38:25;11.40;;;3.42;;
60314;SDS011;46159;42.550;21.904;2023-07-20T00:40:51;12.60;;;3.50;;
60314;SDS011;46159;42.550;21.904;2023-07-20T00:43:17;12.65;;;3.03;;
60314;SDS011;46159;42.550;21.904;2023-07-20T00:45:44;14.13;;;3.67;;
60314;SDS011;46159;42.550;21.904;2023-07-20T00:48:10;10.38;;;2.75;;
60314;SDS011;46159;42.550;21.904;2023-07-20T00:50:37;11.80;;;2.92;;
60314;SDS011;46159;42.550;21.904;2023-07-20T00:53:03;13.32;;;3.33;;
60314;SDS011;46159;42.550;21.904;2023-07-20T00:55:33;16.38;;;3.35;;
60314;SDS011;46159;42.550;21.904;2023-07-20T00:57:59;9.75;;;3.13;;
60314;SDS011;46159;42.550;21.904;2023-07-20T01:00:26;10.00;;;3.40;;
60314;SDS011;46159;42.550;21.904;2023-07-20T01:02:52;10.38;;;3.15;;
60314;SDS011;46159;42.550;21.904;2023-07-20T01:05:19;11.10;;;2.80;;
60314;SDS011;46159;42.550;21.904;2023-07-20T01:12:59;9.77;;;2.53;;
60314;SDS011;46159;42.550;21.904;2023-07-20T01:15:26;10.32;;;3.00;;
60314;SDS011;46159;42.550;21.904;2023-07-20T01:17:52;12.63;;;3.60;;
60314;SDS011;46159;42.550;21.904;2023-07-20T01:20:19;10.95;;;3.17;;
60314;SDS011;46159;42.550;21.904;2023-07-20T01:23:00;12.85;;;3.70;;
60314;SDS011;46159;42.550;21.904;2023-07-20T01:25:45;16.83;;;3.67;;
60314;SDS011;46159;42.550;21.904;2023-07-20T01:33:26;10.98;;;3.40;;
60314;SDS011;46159;42.550;21.904;2023-07-20T01:35:54;11.68;;;3.33;;
60314;SDS011;46159;42.550;21.904;2023-07-20T01:38:20;9.60;;;3.42;;
60314;SDS011;46159;42.550;21.904;2023-07-20T01:40:47;11.55;;;3.50;;
60314;SDS011;46159;42.550;21.904;2023-07-20T01:43:14;10.60;;;3.35;;
60314;SDS011;46159;42.550;21.904;2023-07-20T01:45:40;15.13;;;3.55;;
60314;SDS011;46159;42.550;21.904;2023-07-20T01:48:06;12.52;;;3.63;;
60314;SDS011;46159;42.550;21.904;2023-07-20T01:50:32;13.07;;;3.58;;
60314;SDS011;46159;42.550;21.904;2023-07-20T01:52:59;12.82;;;3.53;;
60314;SDS011;46159;42.550;21.904;2023-07-20T01:55:25;11.48;;;3.80;;
60314;SDS011;46159;42.550;21.904;2023-07-20T01:57:52;11.32;;;3.75;;
60314;SDS011;46159;42.550;21.904;2023-07-20T02:00:18;16.73;;;3.80;;
60314;SDS011;46159;42.550;21.904;2023-07-20T02:02:46;14.25;;;4.03;;
60314;SDS011;46159;42.550;21.904;2023-07-20T02:05:12;10.63;;;3.50;;
60314;SDS011;46159;42.550;21.904;2023-07-20T02:07:38;14.40;;;3.58;;
60314;SDS011;46159;42.550;21.904;2023-07-20T02:10:04;12.18;;;3.30;;
60314;SDS011;46159;42.550;21.904;2023-07-20T02:12:30;11.68;;;3.28;;
60314;SDS011;46159;42.550;21.904;2023-07-20T02:14:57;10.55;;;3.67;;
60314;SDS011;46159;42.550;21.904;2023-07-20T02:17:23;14.07;;;3.67;;
60314;SDS011;46159;42.550;21.904;2023-07-20T02:19:52;10.80;;;3.80;;
60314;SDS011;46159;42.550;21.904;2023-07-20T02:22:19;12.10;;;3.35;;
60314;SDS011;46159;42.550;21.904;2023-07-20T02:24:46;12.60;;;3.33;;
60314;SDS011;46159;42.550;21.904;2023-07-20T02:27:12;11.73;;;3.42;;
60314;SDS011;46159;42.550;21.904;2023-07-20T02:29:38;11.02;;;4.10;;
60314;SDS011;46159;42.550;21.904;2023-07-20T02:32:04;10.68;;;3.78;;
60314;SDS011;46159;42.550;21.904;2023-07-20T02:34:31;10.55;;;3.50;;
60314;SDS011;46159;42.550;21.904;2023-07-20T02:36:57;11.18;;;3.72;;
60314;SDS011;46159;42.550;21.904;2023-07-20T02:39:26;13.23;;;4.43;;
60314;SDS011;46159;42.550;21.904;2023-07-20T02:41:53;20.08;;;4.35;;
60314;SDS011;46159;42.550;21.904;2023-07-20T02:44:19;14.75;;;3.65;;
60314;SDS011;46159;42.550;21.904;2023-07-20T02:46:45;14.88;;;3.90;;
60314;SDS011;46159;42.550;21.904;2023-07-20T02:49:11;14.60;;;4.25;;
60314;SDS011;46159;42.550;21.904;2023-07-20T02:51:37;14.25;;;3.70;;
60314;SDS011;46159;42.550;21.904;2023-07-20T02:54:03;10.20;;;3.45;;
60314;SDS011;46159;42.550;21.904;2023-07-20T02:56:29;16.20;;;4.63;;
60314;SDS011;46159;42.550;21.904;2023-07-20T02:58:55;15.10;;;4.13;;
60314;SDS011;46159;42.550;21.904;2023-07-20T03:01:22;12.13;;;3.78;;
60314;SDS011;46159;42.550;21.904;2023-07-20T03:03:48;10.23;;;3.92;;
60314;SDS011;46159;42.550;21.904;2023-07-20T03:06:15;11.48;;;4.50;;
60314;SDS011;46159;42.550;21.904;2023-07-20T03:08:41;10.52;;;4.28;;
60314;SDS011;46159;42.550;21.904;2023-07-20T03:11:10;13.02;;;4.03;;
60314;SDS011;46159;42.550;21.904;2023-07-20T03:13:36;10.75;;;3.80;;
60314;SDS011;46159;42.550;21.904;2023-07-20T03:16:02;10.05;;;3.88;;
60314;SDS011;46159;42.550;21.904;2023-07-20T03:18:28;11.40;;;3.90;;
60314;SDS011;46159;42.550;21.904;2023-07-20T03:20:54;13.27;;;4.68;;
60314;SDS011;46159;42.550;21.904;2023-07-20T03:23:20;12.23;;;4.20;;
60314;SDS011;46159;42.550;21.904;2023-07-20T03:25:46;18.90;;;4.72;;
60314;SDS011;46159;42.550;21.904;2023-07-20T03:28:12;13.60;;;4.40;;
60314;SDS011;46159;42.550;21.904;2023-07-20T03:30:38;11.68;;;4.20;;
60314;SDS011;46159;42.550;21.904;2023-07-20T03:33:04;14.48;;;4.40;;
60314;SDS011;46159;42.550;21.904;2023-07-20T03:35:31;15.95;;;4.78;;
60314;SDS011;46159;42.550;21.904;2023-07-20T03:37:57;15.38;;;4.53;;
60314;SDS011;46159;42.550;21.904;2023-07-20T03:40:23;12.65;;;4.47;;
60314;SDS011;46159;42.550;21.904;2023-07-20T03:42:51;11.27;;;4.35;;
60314;SDS011;46159;42.550;21.904;2023-07-20T03:45:17;11.80;;;4.53;;
60314;SDS011;46159;42.550;21.904;2023-07-20T03:47:43;19.63;;;4.18;;
60314;SDS011;46159;42.550;21.904;2023-07-20T03:50:09;13.45;;;4.15;;
60314;SDS011;46159;42.550;21.904;2023-07-20T03:52:36;17.20;;;4.53;;
60314;SDS011;46159;42.550;21.904;2023-07-20T03:55:02;19.27;;;4.60;;
60314;SDS011;46159;42.550;21.904;2023-07-20T03:57:28;15.32;;;4.82;;
60314;SDS011;46159;42.550;21.904;2023-07-20T03:59:54;10.25;;;3.72;;
60314;SDS011;46159;42.550;21.904;2023-07-20T04:02:20;10.43;;;3.78;;
60314;SDS011;46159;42.550;21.904;2023-07-20T04:04:46;14.55;;;4.35;;
60314;SDS011;46159;42.550;21.904;2023-07-20T04:07:12;12.75;;;4.82;;
60314;SDS011;46159;42.550;21.904;2023-07-20T04:09:38;14.48;;;4.53;;
60314;SDS011;46159;42.550;21.904;2023-07-20T04:12:05;15.43;;;4.55;;
60314;SDS011;46159;42.550;21.904;2023-07-20T04:14:31;15.00;;;4.03;;
60314;SDS011;46159;42.550;21.904;2023-07-20T04:16:57;19.90;;;5.25;;
60314;SDS011;46159;42.550;21.904;2023-07-20T04:19:25;16.88;;;4.75;;
60314;SDS011;46159;42.550;21.904;2023-07-20T04:21:51;12.77;;;4.15;;
60314;SDS011;46159;42.550;21.904;2023-07-20T04:24:17;13.10;;;3.97;;
60314;SDS011;46159;42.550;21.904;2023-07-20T04:26:43;13.13;;;4.22;;
60314;SDS011;46159;42.550;21.904;2023-07-20T04:29:09;13.02;;;3.30;;
60314;SDS011;46159;42.550;21.904;2023-07-20T04:31:35;13.45;;;4.70;;
60314;SDS011;46159;42.550;21.904;2023-07-20T04:34:01;14.88;;;4.50;;
60314;SDS011;46159;42.550;21.904;2023-07-20T04:36:27;11.48;;;4.57;;
60314;SDS011;46159;42.550;21.904;2023-07-20T04:38:53;21.48;;;4.20;;
60314;SDS011;46159;42.550;21.904;2023-07-20T04:41:19;14.75;;;4.13;;
60314;SDS011;46159;42.550;21.904;2023-07-20T04:43:46;15.75;;;4.30;;
60314;SDS011;46159;42.550;21.904;2023-07-20T04:46:12;22.08;;;5.15;;
60314;SDS011;46159;42.550;21.904;2023-07-20T04:48:38;19.88;;;5.30;;
60314;SDS011;46159;42.550;21.904;2023-07-20T04:51:05;12.23;;;3.92;;
60314;SDS011;46159;42.550;21.904;2023-07-20T04:53:31;20.52;;;5.25;;
60314;SDS011;46159;42.550;21.904;2023-07-20T04:55:57;14.15;;;4.40;;
60314;SDS011;46159;42.550;21.904;2023-07-20T04:58:24;23.52;;;4.53;;
60314;SDS011;46159;42.550;21.904;2023-07-20T05:00:50;19.58;;;5.20;;
60314;SDS011;46159;42.550;21.904;2023-07-20T05:03:16;19.23;;;5.05;;
60314;SDS011;46159;42.550;21.904;2023-07-20T05:05:42;17.85;;;4.57;;
60314;SDS011;46159;42.550;21.904;2023-07-20T05:08:09;17.65;;;4.10;;
60314;SDS011;46159;42.550;21.904;2023-07-20T05:10:35;15.57;;;4.60;;
60314;SDS011;46159;42.550;21.904;2023-07-20T05:13:01;13.25;;;3.70;;
60314;SDS011;46159;42.550;21.904;2023-07-20T05:15:27;16.77;;;4.55;;
60314;SDS011;46159;42.550;21.904;2023-07-20T05:17:53;17.40;;;3.95;;
60314;SDS011;46159;42.550;21.904;2023-07-20T05:20:19;16.00;;;4.55;;
60314;SDS011;46159;42.550;21.904;2023-07-20T05:22:46;14.48;;;4.78;;
60314;SDS011;46159;42.550;21.904;2023-07-20T05:25:12;16.60;;;4.25;;
60314;SDS011;46159;42.550;21.904;2023-07-20T05:27:38;13.10;;;4.05;;
60314;SDS011;46159;42.550;21.904;2023-07-20T05:30:05;14.88;;;4.65;;
60314;SDS011;46159;42.550;21.904;2023-07-20T05:32:32;13.07;;;4.43;;
60314;SDS011;46159;42.550;21.904;2023-07-20T05:34:58;13.43;;;3.85;;
60314;SDS011;46159;42.550;21.904;2023-07-20T05:37:24;16.88;;;4.05;;
60314;SDS011;46159;42.550;21.904;2023-07-20T05:39:50;11.88;;;4.18;;
60314;SDS011;46159;42.550;21.904;2023-07-20T05:42:16;14.45;;;3.90;;
60314;SDS011;46159;42.550;21.904;2023-07-20T05:44:42;14.60;;;4.30;;
60314;SDS011;46159;42.550;21.904;2023-07-20T05:47:09;12.57;;;4.57;;
60314;SDS011;46159;42.550;21.904;2023-07-20T05:49:35;14.52;;;4.32;;
60314;SDS011;46159;42.550;21.904;2023-07-20T05:52:01;11.32;;;3.47;;
60314;SDS011;46159;42.550;21.904;2023-07-20T05:54:27;15.00;;;4.47;;
60314;SDS011;46159;42.550;21.904;2023-07-20T05:56:54;13.60;;;4.45;;
60314;SDS011;46159;42.550;21.904;2023-07-20T05:59:20;13.35;;;3.70;;
60314;SDS011;46159;42.550;21.904;2023-07-20T06:01:46;13.60;;;4.07;;
60314;SDS011;46159;42.550;21.904;2023-07-20T06:04:13;14.20;;;4.20;;
60314;SDS011;46159;42.550;21.904;2023-07-20T06:06:39;13.95;;;4.57;;
60314;SDS011;46159;42.550;21.904;2023-07-20T06:09:06;14.60;;;4.22;;
60314;SDS011;46159;42.550;21.904;2023-07-20T06:11:36;13.75;;;3.97;;
60314;SDS011;46159;42.550;21.904;2023-07-20T06:14:02;17.55;;;4.72;;
60314;SDS011;46159;42.550;21.904;2023-07-20T06:16:28;23.02;;;4.93;;
60314;SDS011;46159;42.550;21.904;2023-07-20T06:18:55;14.68;;;4.43;;
60314;SDS011;46159;42.550;21.904;2023-07-20T06:21:21;11.15;;;3.65;;
60314;SDS011;46159;42.550;21.904;2023-07-20T06:23:47;9.43;;;3.80;;
60314;SDS011;46159;42.550;21.904;2023-07-20T06:26:13;18.10;;;4.55;;
60314;SDS011;46159;42.550;21.904;2023-07-20T06:28:39;17.38;;;4.22;;
60314;SDS011;46159;42.550;21.904;2023-07-20T06:31:05;17.77;;;4.80;;
60314;SDS011;46159;42.550;21.904;2023-07-20T06:33:31;13.98;;;4.50;;
60314;SDS011;46159;42.550;21.904;2023-07-20T06:35:59;12.52;;;4.35;;
60314;SDS011;46159;42.550;21.904;2023-07-20T06:38:25;12.02;;;4.20;;
60314;SDS011;46159;42.550;21.904;2023-07-20T06:40:52;13.57;;;3.58;;
60314;SDS011;46159;42.550;21.904;2023-07-20T06:43:18;14.20;;;3.97;;
60314;SDS011;46159;42.550;21.904;2023-07-20T06:45:44;11.73;;;4.10;;
60314;SDS011;46159;42.550;21.904;2023-07-20T06:48:10;11.32;;;4.13;;
60314;SDS011;46159;42.550;21.904;2023-07-20T06:50:36;16.02;;;4.90;;
60314;SDS011;46159;42.550;21.904;2023-07-20T06:53:02;10.73;;;4.40;;
60314;SDS011;46159;42.550;21.904;2023-07-20T06:55:29;15.52;;;4.80;;
60314;SDS011;46159;42.550;21.904;2023-07-20T06:57:55;10.02;;;3.65;;
60314;SDS011;46159;42.550;21.904;2023-07-20T07:00:21;16.00;;;4.28;;
60314;SDS011;46159;42.550;21.904;2023-07-20T07:02:47;12.48;;;2.85;;
60314;SDS011;46159;42.550;21.904;2023-07-20T07:05:13;10.18;;;3.42;;
60314;SDS011;46159;42.550;21.904;2023-07-20T07:07:40;12.68;;;4.00;;
60314;SDS011;46159;42.550;21.904;2023-07-20T07:10:07;15.20;;;4.47;;
60314;SDS011;46159;42.550;21.904;2023-07-20T07:12:33;11.55;;;4.10;;
60314;SDS011;46159;42.550;21.904;2023-07-20T07:15:00;12.63;;;4.20;;
60314;SDS011;46159;42.550;21.904;2023-07-20T07:17:26;13.57;;;4.43;;
60314;SDS011;46159;42.550;21.904;2023-07-20T07:19:53;8.70;;;2.70;;
60314;SDS011;46159;42.550;21.904;2023-07-20T07:22:20;10.48;;;2.60;;
60314;SDS011;46159;42.550;21.904;2023-07-20T07:24:49;14.00;;;3.00;;
60314;SDS011;46159;42.550;21.904;2023-07-20T07:27:15;10.30;;;2.78;;
60314;SDS011;46159;42.550;21.904;2023-07-20T07:29:42;22.52;;;4.47;;
60314;SDS011;46159;42.550;21.904;2023-07-20T07:32:12;11.40;;;3.30;;
60314;SDS011;46159;42.550;21.904;2023-07-20T07:34:38;12.77;;;3.70;;
60314;SDS011;46159;42.550;21.904;2023-07-20T07:37:04;9.48;;;3.88;;
60314;SDS011;46159;42.550;21.904;2023-07-20T07:39:31;14.57;;;3.80;;
60314;SDS011;46159;42.550;21.904;2023-07-20T07:41:57;11.40;;;2.70;;
60314;SDS011;46159;42.550;21.904;2023-07-20T07:44:23;15.55;;;3.70;;
60314;SDS011;46159;42.550;21.904;2023-07-20T07:46:49;10.10;;;3.15;;
60314;SDS011;46159;42.550;21.904;2023-07-20T07:49:15;11.57;;;3.03;;
60314;SDS011;46159;42.550;21.904;2023-07-20T07:51:43;14.90;;;3.38;;
60314;SDS011;46159;42.550;21.904;2023-07-20T07:54:09;11.73;;;3.00;;
60314;SDS011;46159;42.550;21.904;2023-07-20T07:56:36;9.20;;;3.25;;
60314;SDS011;46159;42.550;21.904;2023-07-20T07:59:02;13.70;;;3.75;;
60314;SDS011;46159;42.550;21.904;2023-07-20T08:01:28;10.50;;;3.00;;
60314;SDS011;46159;42.550;21.904;2023-07-20T08:03:55;10.55;;;3.33;;
60314;SDS011;46159;42.550;21.904;2023-07-20T08:06:21;9.93;;;3.47;;
60314;SDS011;46159;42.550;21.904;2023-07-20T08:08:49;12.77;;;3.35;;
60314;SDS011;46159;42.550;21.904;2023-07-20T08:11:15;16.75;;;3.97;;
60314;SDS011;46159;42.550;21.904;2023-07-20T08:13:42;11.73;;;2.85;;
60314;SDS011;46159;42.550;21.904;2023-07-20T08:16:09;10.50;;;3.05;;
60314;SDS011;46159;42.550;21.904;2023-07-20T08:18:35;12.73;;;3.97;;
60314;SDS011;46159;42.550;21.904;2023-07-20T08:21:01;10.43;;;3.35;;
60314;SDS011;46159;42.550;21.904;2023-07-20T08:23:28;11.52;;;3.33;;
60314;SDS011;46159;42.550;21.904;2023-07-20T08:25:54;11.95;;;3.00;;
60314;SDS011;46159;42.550;21.904;2023-07-20T08:28:20;9.05;;;2.38;;
60314;SDS011;46159;42.550;21.904;2023-07-20T08:30:47;12.93;;;3.17;;
60314;SDS011;46159;42.550;21.904;2023-07-20T08:33:14;9.75;;;3.33;;
60314;SDS011;46159;42.550;21.904;2023-07-20T08:35:40;11.20;;;2.60;;
60314;SDS011;46159;42.550;21.904;2023-07-20T08:38:06;14.43;;;3.20;;
60314;SDS011;46159;42.550;21.904;2023-07-20T08:40:33;13.48;;;3.28;;
60314;SDS011;46159;42.550;21.904;2023-07-20T08:42:59;20.77;;;3.53;;
60314;SDS011;46159;42.550;21.904;2023-07-20T08:45:26;9.45;;;3.30;;
60314;SDS011;46159;42.550;21.904;2023-07-20T08:47:58;16.35;;;2.88;;
60314;SDS011;46159;42.550;21.904;2023-07-20T08:50:25;14.35;;;2.92;;
60314;SDS011;46159;42.550;21.904;2023-07-20T08:52:54;13.13;;;3.28;;
60314;SDS011;46159;42.550;21.904;2023-07-20T08:55:22;8.52;;;2.85;;
60314;SDS011;46159;42.550;21.904;2023-07-20T08:57:49;6.60;;;2.40;;
60314;SDS011;46159;42.550;21.904;2023-07-20T09:00:16;9.73;;;2.70;;
60314;SDS011;46159;42.550;21.904;2023-07-20T09:02:43;10.27;;;2.42;;
60314;SDS011;46159;42.550;21.904;2023-07-20T09:05:11;11.32;;;2.90;;
60314;SDS011;46159;42.550;21.904;2023-07-20T09:07:42;8.80;;;2.35;;
60314;SDS011;46159;42.550;21.904;2023-07-20T09:10:08;11.20;;;2.97;;
60314;SDS011;46159;42.550;21.904;2023-07-20T09:12:36;10.18;;;2.80;;
60314;SDS011;46159;42.550;21.904;2023-07-20T09:15:02;11.13;;;2.75;;
60314;SDS011;46159;42.550;21.904;2023-07-20T09:17:31;14.52;;;2.78;;
60314;SDS011;46159;42.550;21.904;2023-07-20T09:19:58;13.02;;;3.35;;
60314;SDS011;46159;42.550;21.904;2023-07-20T09:22:30;11.32;;;2.83;;
60314;SDS011;46159;42.550;21.904;2023-07-20T09:24:57;13.35;;;2.88;;
60314;SDS011;46159;42.550;21.904;2023-07-20T09:27:37;10.23;;;3.15;;
60314;SDS011;46159;42.550;21.904;2023-07-20T09:30:03;10.75;;;2.90;;
60314;SDS011;46159;42.550;21.904;2023-07-20T09:32:38;8.80;;;2.42;;
60314;SDS011;46159;42.550;21.904;2023-07-20T09:35:05;10.25;;;3.55;;
60314;SDS011;46159;42.550;21.904;2023-07-20T09:37:32;11.40;;;2.60;;
60314;SDS011;46159;42.550;21.904;2023-07-20T09:39:59;9.48;;;2.80;;
60314;SDS011;46159;42.550;21.904;2023-07-20T09:42:25;9.95;;;2.63;;
60314;SDS011;46159;42.550;21.904;2023-07-20T09:44:52;10.57;;;2.90;;
60314;SDS011;46159;42.550;21.904;2023-07-20T09:47:24;9.07;;;2.55;;
60314;SDS011;46159;42.550;21.904;2023-07-20T09:49:57;8.90;;;2.78;;
60314;SDS011;46159;42.550;21.904;2023-07-20T09:52:25;10.80;;;2.30;;
60314;SDS011;46159;42.550;21.904;2023-07-20T09:54:51;8.30;;;2.97;;
60314;SDS011;46159;42.550;21.904;2023-07-20T09:57:18;8.60;;;2.58;;
60314;SDS011;46159;42.550;21.904;2023-07-20T09:59:45;9.05;;;2.63;;
60314;SDS011;46159;42.550;21.904;2023-07-20T10:02:13;15.10;;;3.25;;
60314;SDS011;46159;42.550;21.904;2023-07-20T10:04:42;8.07;;;2.53;;
60314;SDS011;46159;42.550;21.904;2023-07-20T10:07:10;10.82;;;3.17;;
60314;SDS011;46159;42.550;21.904;2023-07-20T10:09:37;11.00;;;2.60;;
60314;SDS011;46159;42.550;21.904;2023-07-20T10:12:05;11.07;;;2.70;;
60314;SDS011;46159;42.550;21.904;2023-07-20T10:14:33;11.07;;;2.78;;
60314;SDS011;46159;42.550;21.904;2023-07-20T10:17:01;10.68;;;2.88;;
60314;SDS011;46159;42.550;21.904;2023-07-20T10:19:30;7.70;;;2.72;;
60314;SDS011;46159;42.550;21.904;2023-07-20T10:22:00;8.80;;;2.60;;
60314;SDS011;46159;42.550;21.904;2023-07-20T10:24:27;7.68;;;2.90;;
60314;SDS011;46159;42.550;21.904;2023-07-20T10:26:55;9.57;;;2.90;;
60314;SDS011;46159;42.550;21.904;2023-07-20T10:29:21;13.68;;;2.72;;
60314;SDS011;46159;42.550;21.904;2023-07-20T10:31:48;8.90;;;2.95;;
60314;SDS011;46159;42.550;21.904;2023-07-20T10:34:14;7.53;;;2.95;;
60314;SDS011;46159;42.550;21.904;2023-07-20T10:36:45;9.25;;;2.55;;
60314;SDS011;46159;42.550;21.904;2023-07-20T10:42:09;9.05;;;2.95;;
60314;SDS011;46159;42.550;21.904;2023-07-20T10:44:38;9.63;;;2.72;;
60314;SDS011;46159;42.550;21.904;2023-07-20T10:47:09;9.15;;;2.50;;
60314;SDS011;46159;42.550;21.904;2023-07-20T10:49:35;9.30;;;2.38;;
60314;SDS011;46159;42.550;21.904;2023-07-20T10:52:21;9.05;;;2.30;;
60314;SDS011;46159;42.550;21.904;2023-07-20T10:54:49;15.23;;;3.00;;
60314;SDS011;46159;42.550;21.904;2023-07-20T10:57:25;8.70;;;2.75;;
60314;SDS011;46159;42.550;21.904;2023-07-20T11:00:06;10.65;;;2.72;;
60314;SDS011;46159;42.550;21.904;2023-07-20T11:02:41;9.23;;;2.20;;
60314;SDS011;46159;42.550;21.904;2023-07-20T11:05:07;11.20;;;3.38;;
60314;SDS011;46159;42.550;21.904;2023-07-20T11:07:36;7.78;;;2.35;;
60314;SDS011;46159;42.550;21.904;2023-07-20T11:10:13;9.70;;;2.80;;
60314;SDS011;46159;42.550;21.904;2023-07-20T11:13:10;8.05;;;2.65;;
60314;SDS011;46159;42.550;21.904;2023-07-20T11:15:44;8.25;;;2.97;;
60314;SDS011;46159;42.550;21.904;2023-07-20T11:18:11;9.23;;;4.10;;
60314;SDS011;46159;42.550;21.904;2023-07-20T11:20:37;10.90;;;3.58;;
60314;SDS011;46159;42.550;21.904;2023-07-20T11:23:03;13.80;;;3.55;;
60314;SDS011;46159;42.550;21.904;2023-07-20T11:25:37;9.52;;;2.88;;
60314;SDS011;46159;42.550;21.904;2023-07-20T11:28:06;7.93;;;2.58;;
60314;SDS011;46159;42.550;21.904;2023-07-20T11:30:33;9.40;;;3.22;;
60314;SDS011;46159;42.550;21.904;2023-07-20T11:32:59;10.05;;;3.25;;
60314;SDS011;46159;42.550;21.904;2023-07-20T11:35:25;10.70;;;3.10;;
60314;SDS011;46159;42.550;21.904;2023-07-20T11:37:51;11.27;;;2.83;;
60314;SDS011;46159;42.550;21.904;2023-07-20T11:40:18;10.05;;;3.22;;
60314;SDS011;46159;42.550;21.904;2023-07-20T11:42:44;11.13;;;3.17;;
60314;SDS011;46159;42.550;21.904;2023-07-20T11:45:11;11.52;;;3.10;;
60314;SDS011;46159;42.550;21.904;2023-07-20T11:47:40;9.48;;;3.20;;
60314;SDS011;46159;42.550;21.904;2023-07-20T11:50:18;9.60;;;2.78;;
60314;SDS011;46159;42.550;21.904;2023-07-20T11:52:47;10.05;;;3.20;;
60314;SDS011;46159;42.550;21.904;2023-07-20T11:55:13;19.35;;;4.20;;
60314;SDS011;46159;42.550;21.904;2023-07-20T11:57:57;11.30;;;2.92;;
60314;SDS011;46159;42.550;21.904;2023-07-20T12:00:26;12.02;;;3.78;;
60314;SDS011;46159;42.550;21.904;2023-07-20T12:02:53;10.18;;;3.55;;
60314;SDS011;46159;42.550;21.904;2023-07-20T12:05:19;12.75;;;2.88;;
60314;SDS011;46159;42.550;21.904;2023-07-20T12:07:48;8.23;;;3.22;;
60314;SDS011;46159;42.550;21.904;2023-07-20T12:10:27;8.65;;;2.88;;
60314;SDS011;46159;42.550;21.904;2023-07-20T12:13:00;11.30;;;3.13;;
60314;SDS011;46159;42.550;21.904;2023-07-20T12:15:27;10.80;;;3.20;;
60314;SDS011;46159;42.550;21.904;2023-07-20T12:18:00;9.05;;;3.55;;
60314;SDS011;46159;42.550;21.904;2023-07-20T12:20:39;11.15;;;3.35;;
60314;SDS011;46159;42.550;21.904;2023-07-20T12:23:12;8.93;;;3.08;;
60314;SDS011;46159;42.550;21.904;2023-07-20T12:25:39;9.70;;;2.90;;
60314;SDS011;46159;42.550;21.904;2023-07-20T12:28:10;10.63;;;2.80;;
60314;SDS011;46159;42.550;21.904;2023-07-20T12:30:39;29.85;;;4.40;;
60314;SDS011;46159;42.550;21.904;2023-07-20T12:33:05;15.35;;;2.75;;
60314;SDS011;46159;42.550;21.904;2023-07-20T12:35:32;8.38;;;2.92;;
60314;SDS011;46159;42.550;21.904;2023-07-20T12:38:01;12.55;;;3.05;;
60314;SDS011;46159;42.550;21.904;2023-07-20T12:40:33;11.77;;;2.83;;
60314;SDS011;46159;42.550;21.904;2023-07-20T12:43:02;10.27;;;2.97;;
60314;SDS011;46159;42.550;21.904;2023-07-20T12:45:29;10.85;;;3.25;;
60314;SDS011;46159;42.550;21.904;2023-07-20T12:47:57;12.13;;;3.00;;
60314;SDS011;46159;42.550;21.904;2023-07-20T12:50:23;8.93;;;2.60;;
60314;SDS011;46159;42.550;21.904;2023-07-20T12:52:49;8.07;;;2.72;;
60314;SDS011;46159;42.550;21.904;2023-07-20T12:55:24;10.05;;;2.65;;
60314;SDS011;46159;42.550;21.904;2023-07-20T12:57:50;9.07;;;2.42;;
60314;SDS011;46159;42.550;21.904;2023-07-20T13:00:17;9.32;;;2.47;;
60314;SDS011;46159;42.550;21.904;2023-07-20T13:02:43;9.88;;;2.92;;
60314;SDS011;46159;42.550;21.904;2023-07-20T13:05:10;10.98;;;3.05;;
60314;SDS011;46159;42.550;21.904;2023-07-20T13:07:37;9.65;;;2.67;;
60314;SDS011;46159;42.550;21.904;2023-07-20T13:10:04;9.63;;;3.08;;
60314;SDS011;46159;42.550;21.904;2023-07-20T13:12:31;8.20;;;2.33;;
60314;SDS011;46159;42.550;21.904;2023-07-20T13:14:57;8.82;;;2.63;;
60314;SDS011;46159;42.550;21.904;2023-07-20T13:17:28;12.48;;;3.05;;
60314;SDS011;46159;42.550;21.904;2023-07-20T13:19:54;9.60;;;2.90;;
60314;SDS011;46159;42.550;21.904;2023-07-20T13:22:20;11.57;;;2.83;;
60314;SDS011;46159;42.550;21.904;2023-07-20T13:24:46;7.97;;;2.90;;
60314;SDS011;46159;42.550;21.904;2023-07-20T13:27:17;7.70;;;2.85;;
60314;SDS011;46159;42.550;21.904;2023-07-20T13:29:44;7.97;;;2.80;;
60314;SDS011;46159;42.550;21.904;2023-07-20T13:32:14;11.32;;;3.20;;
60314;SDS011;46159;42.550;21.904;2023-07-20T13:34:40;9.57;;;2.83;;
60314;SDS011;46159;42.550;21.904;2023-07-20T13:37:06;6.55;;;2.40;;
60314;SDS011;46159;42.550;21.904;2023-07-20T13:39:32;7.05;;;2.33;;
60314;SDS011;46159;42.550;21.904;2023-07-20T13:41:59;8.55;;;2.50;;
60314;SDS011;46159;42.550;21.904;2023-07-20T13:44:27;8.43;;;2.72;;
60314;SDS011;46159;42.550;21.904;2023-07-20T13:46:53;12.35;;;3.33;;
60314;SDS011;46159;42.550;21.904;2023-07-20T13:49:19;8.68;;;3.28;;
60314;SDS011;46159;42.550;21.904;2023-07-20T13:51:45;10.60;;;2.67;;
60314;SDS011;46159;42.550;21.904;2023-07-20T13:54:12;7.32;;;2.67;;
60314;SDS011;46159;42.550;21.904;2023-07-20T13:56:38;9.52;;;2.55;;
60314;SDS011;46159;42.550;21.904;2023-07-20T13:59:04;11.48;;;2.80;;
60314;SDS011;46159;42.550;21.904;2023-07-20T14:01:30;8.38;;;2.33;;
60314;SDS011;46159;42.550;21.904;2023-07-20T14:03:58;11.15;;;3.00;;
60314;SDS011;46159;42.550;21.904;2023-07-20T14:06:24;9.07;;;3.13;;
60314;SDS011;46159;42.550;21.904;2023-07-20T14:08:50;8.55;;;2.45;;
60314;SDS011;46159;42.550;21.904;2023-07-20T14:11:18;7.47;;;2.40;;
60314;SDS011;46159;42.550;21.904;2023-07-20T14:13:44;7.88;;;2.85;;
60314;SDS011;46159;42.550;21.904;2023-07-20T14:16:10;10.85;;;2.50;;
60314;SDS011;46159;42.550;21.904;2023-07-20T14:18:36;12.10;;;3.22;;
60314;SDS011;46159;42.550;21.904;2023-07-20T14:21:02;9.25;;;2.95;;
60314;SDS011;46159;42.550;21.904;2023-07-20T14:23:30;9.25;;;2.60;;
60314;SDS011;46159;42.550;21.904;2023-07-20T14:25:56;10.75;;;2.53;;
60314;SDS011;46159;42.550;21.904;2023-07-20T14:28:22;10.15;;;2.63;;
60314;SDS011;46159;42.550;21.904;2023-07-20T14:30:48;10.40;;;3.33;;
60314;SDS011;46159;42.550;21.904;2023-07-20T14:33:14;7.93;;;2.45;;
60314;SDS011;46159;42.550;21.904;2023-07-20T14:35:40;7.75;;;2.20;;
60314;SDS011;46159;42.550;21.904;2023-07-20T14:38:06;8.73;;;2.55;;